2022年6月26日

时间 代码 天气 温度 能见度 天花板 METAR/SPECI
6:50 上午
V
63 °F 6¼ mi+ - 260° 260° 6 kt METAR EDWE 260450Z AUTO 26006KT 9999 // ///////// 17/15 Q1012
6:20 上午
V
64 °F 6¼ mi+ - 270° 270° 8 kt METAR EDWE 260420Z AUTO 27008KT 9999 // ///////// 18/16 Q1011
5:50 上午
V
64 °F 6¼ mi+ - 280° 280° 7 kt METAR EDWE 260350Z AUTO 28007KT 9999 // ///////// 18/16 Q1011
5:20 上午
V
64 °F 5 mi - 240° 240° 7 kt METAR EDWE 260320Z AUTO 24007KT 8000 // ///////// 18/17 Q1011
4:50 上午
I
63 °F 2¼ mi - 160° 160° 3 kt METAR EDWE 260250Z AUTO 16003KT 120V260 3600 // ///////// 17/16 Q1010
4:20 上午
L
61 °F ⅞ mi - Var Var 2 kt METAR EDWE 260220Z AUTO VRB02KT 1400 R25/P2000N // ///////// 16/15 Q1010
3:50 上午
I
61 °F 1⅛ mi - 110° 110° 3 kt METAR EDWE 260150Z AUTO 11003KT 1900 // ///////// 16/15 Q1011
3:20 上午
I
61 °F 1½ mi - 090° 090° 3 kt METAR EDWE 260120Z AUTO 09003KT 2500 // ///////// 16/16 Q1011
2:50 上午
L
61 °F ¼ mi - 090° 090° 2 kt METAR EDWE 260050Z AUTO 09002KT 0500 R25/0750D // ///////// 16/15 Q1011
2:20 上午
L
61 °F ⅛ mi - 080° 080° 1 kt METAR EDWE 260020Z AUTO 08001KT 0300 R25/0350N // ///////// 16/16 Q1011
1:50 上午
I
63 °F 2⅛ mi - Var Var 2 kt METAR EDWE 252350Z AUTO VRB02KT 3400 // ///////// 17/16 Q1011
1:20 上午
I
63 °F 2¾ mi - Var 000° 0 kt METAR EDWE 252320Z AUTO 00000KT 4500 // ///////// 17/16 Q1011
12:50 上午
M
64 °F 3⅛ mi - 080° 080° 2 kt METAR EDWE 252250Z AUTO 08002KT 5000 // ///////// 18/16 Q1011
12:20 上午
M
64 °F 4⅜ mi - 080° 080° 2 kt METAR EDWE 252220Z AUTO 08002KT 7000 // ///////// 18/16 Q1011

2022年6月25日

时间 代码 天气 温度 能见度 天花板 METAR/SPECI
11:50 下午
V
66 °F 6¼ mi+ - 060° 060° 4 kt METAR EDWE 252150Z AUTO 06004KT 9999 // ///////// 19/16 Q1011
11:20 下午
V
66 °F 6¼ mi+ - 070° 070° 7 kt METAR EDWE 252120Z AUTO 07007KT 9999 // ///////// 19/16 Q1011
10:50 下午
V
66 °F 6¼ mi+ - 060° 060° 4 kt METAR EDWE 252050Z AUTO 06004KT 9999 // ///////// 19/16 Q1012
10:20 下午
V
66 °F 6¼ mi+ - 050° 050° 4 kt METAR EDWE 252020Z AUTO 05004KT 9999 // ///////// 19/16 Q1012
9:50 下午
V
66 °F 6¼ mi+ - 030° 030° 5 kt METAR EDWE 251950Z AUTO 03005KT 9999 // ///////// 19/16 Q1012
9:20 下午
V
66 °F 6¼ mi+ - 020° 020° 5 kt METAR EDWE 251920Z AUTO 02005KT 9999 // ///////// 19/17 Q1012
8:50 下午
V
68 °F 6¼ mi+ - 350° 350° 5 kt METAR EDWE 251850Z AUTO 35005KT 9999 // ///////// 20/17 Q1012
7:20 上午
V
64 °F 6¼ mi+ - 170° 170° 6 kt METAR EDWE 250520Z AUTO 17006KT 140V210 9999 // ///////// 18/16 Q1010
6:50 上午
V
63 °F 6¼ mi+ - 160° 160° 4 kt METAR EDWE 250450Z AUTO 16004KT 120V190 9999 // ///////// 17/16 Q1009
6:20 上午
V
61 °F 5 mi - 150° 150° 4 kt METAR EDWE 250420Z AUTO 15004KT 8000 // ///////// 16/15 Q1009
5:50 上午
M
61 °F 3⅛ mi - 150° 150° 4 kt METAR EDWE 250350Z AUTO 15004KT 120V180 5000 // ///////// 16/15 Q1009
5:20 上午
M
61 °F 3⅛ mi - 150° 150° 5 kt METAR EDWE 250320Z AUTO 15005KT 5000 // ///////// 16/15 Q1009
4:50 上午
V
61 °F 5 mi - 150° 150° 5 kt METAR EDWE 250250Z AUTO 15005KT 8000 // ///////// 16/15 Q1009
4:20 上午
V
61 °F 6¼ mi+ - 140° 140° 4 kt METAR EDWE 250220Z AUTO 14004KT 9999 // ///////// 16/15 Q1009
3:50 上午
V
61 °F 6¼ mi+ - 110° 110° 5 kt METAR EDWE 250150Z AUTO 11005KT 9999 // ///////// 16/15 Q1008
3:20 上午
V
63 °F 6¼ mi+ - 130° 130° 4 kt METAR EDWE 250120Z AUTO 13004KT 9999 // ///////// 17/15 Q1008
2:50 上午
V
63 °F 6¼ mi+ - 140° 140° 4 kt METAR EDWE 250050Z AUTO 14004KT 9999 // ///////// 17/16 Q1008
2:20 上午
V
64 °F 6¼ mi+ - 140° 140° 5 kt METAR EDWE 250020Z AUTO 14005KT 110V170 9999 // ///////// 18/16 Q1008
1:50 上午
V
63 °F 6¼ mi+ - 120° 120° 4 kt METAR EDWE 242350Z AUTO 12004KT 9999 // ///////// 17/16 Q1008
1:20 上午
V
64 °F 6¼ mi+ - 140° 140° 3 kt METAR EDWE 242320Z AUTO 14003KT 080V190 9999 // ///////// 18/16 Q1008
12:50 上午
V
64 °F 6¼ mi+ - 140° 140° 4 kt METAR EDWE 242250Z AUTO 14004KT 9999 // ///////// 18/16 Q1008
12:20 上午
V
64 °F 6¼ mi+ - 160° 160° 3 kt METAR EDWE 242220Z AUTO 16003KT 120V200 9999 // ///////// 18/16 Q1008

2022年6月24日

时间 代码 天气 温度 能见度 天花板 METAR/SPECI
11:50 下午
V
64 °F 6¼ mi+ - 150° 150° 3 kt METAR EDWE 242150Z AUTO 15003KT 110V180 9999 // ///////// 18/16 Q1008
11:20 下午
V
64 °F 6¼ mi+ - Var Var 2 kt METAR EDWE 242120Z AUTO VRB02KT 9999 // ///////// 18/16 Q1008
10:50 下午
V
64 °F 6¼ mi+ - 090° 090° 4 kt METAR EDWE 242050Z AUTO 09004KT 9999 // ///////// 18/16 Q1008
10:20 下午
V
66 °F 6¼ mi+ - 150° 150° 3 kt METAR EDWE 242020Z AUTO 15003KT 090V190 9999 // ///////// 19/16 Q1008
9:50 下午
V
66 °F 6¼ mi+ - 100° 100° 4 kt METAR EDWE 241950Z AUTO 10004KT 9999 // ///////// 19/16 Q1007
9:20 下午
V
68 °F 6¼ mi+ - 100° 100° 3 kt METAR EDWE 241920Z AUTO 10003KT 070V140 9999 // ///////// 20/17 Q1007
8:50 下午
V
68 °F 6¼ mi+ - Var Var 2 kt METAR EDWE 241850Z AUTO VRB02KT 9999 // ///////// 20/17 Q1007
较旧的数据

下载我们的应用程序

在您的手机和平板电脑上轻松访问所有航空天气。
有许多网站上没有的功能,如离线支持和个人机场列表。

Studio Eveline

Benalmádena
España

我们和第三方通过cookies跟踪您在我们网站上的上网行为。如果您继续,我们认为您同意我们的cookie政策。 了解更多